Time;durP1;ratioP1;P1;durP2;ratioP2;P2;SDS_P1;SDS_P2;PMS_P1;PMS_P2;Temp;Humidity;BMP_temperature;BMP_pressure;BME280_temperature;BME280_humidity;BME280_pressure;Samples;Min_cycle;Max_cycle;Signal;HPM_P1;HPM_P2
2023/07/22 00:00:34;;;;;;;23.73;21.53;;;11.20;78.00;;;;;;4994033;28;20461;-68
2023/07/22 00:03:01;;;;;;;24.80;22.40;;;11.30;78.10;;;;;;5010521;28;20463;-69
2023/07/22 00:05:28;;;;;;;21.17;19.23;;;11.30;78.10;;;;;;4994718;28;20461;-68
2023/07/22 00:07:54;;;;;;;21.90;19.80;;;11.40;78.20;;;;;;4996723;28;20451;-69
2023/07/22 00:10:21;;;;;;;18.23;16.60;;;11.50;78.30;;;;;;5012243;28;20458;-68
2023/07/22 00:12:48;;;;;;;18.07;16.17;;;11.50;78.30;;;;;;4999640;28;20477;-68
2023/07/22 00:15:16;;;;;;;17.13;15.43;;;11.40;78.20;;;;;;4995260;28;20947;-69
2023/07/22 00:17:43;;;;;;;18.27;15.67;;;11.40;78.20;;;;;;4994285;28;20486;-69
2023/07/22 00:20:11;;;;;;;20.23;18.23;;;11.40;78.20;;;;;;4994571;28;20457;-69
2023/07/22 00:22:39;;;;;;;19.30;17.40;;;11.50;78.30;;;;;;5006319;28;20481;-68
2023/07/22 00:25:09;;;;;;;20.23;17.00;;;11.60;78.40;;;;;;5013658;28;20453;-69
2023/07/22 00:27:37;;;;;;;20.33;14.93;;;11.60;78.40;;;;;;4996595;28;20924;-68
2023/07/22 00:30:04;;;;;;;16.67;13.67;;;11.70;78.40;;;;;;5007258;28;20451;-69
2023/07/22 00:32:33;;;;;;;15.00;11.90;;;11.80;77.90;;;;;;5005107;28;20456;-69
2023/07/22 00:34:59;;;;;;;15.93;12.60;;;11.80;74.30;;;;;;4998774;28;20454;-69
2023/07/22 00:37:27;;;;;;;15.87;11.17;;;12.00;71.50;;;;;;5012237;28;20480;-69
2023/07/22 00:39:54;;;;;;;14.03;9.60;;;12.10;71.00;;;;;;5013191;28;20445;-69
2023/07/22 00:42:21;;;;;;;13.07;8.97;;;12.10;71.00;;;;;;5003424;28;20911;-69
2023/07/22 00:44:48;;;;;;;15.50;9.20;;;12.20;71.00;;;;;;4993967;28;20458;-69
2023/07/22 00:47:15;;;;;;;13.20;7.67;;;12.20;70.50;;;;;;5004712;28;20453;-69
2023/07/22 00:49:44;;;;;;;13.63;7.80;;;12.20;69.50;;;;;;5010139;28;20451;-69
2023/07/22 00:52:11;;;;;;;19.03;8.87;;;12.20;68.10;;;;;;4993911;28;20461;-69
2023/07/22 00:54:38;;;;;;;16.90;7.30;;;12.20;67.10;;;;;;4993859;28;20473;-69
2023/07/22 00:57:05;;;;;;;12.10;7.50;;;12.20;66.40;;;;;;4994016;28;20478;-69
2023/07/22 00:59:32;;;;;;;15.70;8.37;;;12.10;67.00;;;;;;4996734;28;20453;-69
2023/07/22 01:01:59;;;;;;;12.33;7.70;;;12.10;67.00;;;;;;5006765;28;21203;-69
2023/07/22 01:04:26;;;;;;;12.17;7.30;;;12.10;67.00;;;;;;4993573;28;20505;-69
2023/07/22 01:06:55;;;;;;;19.17;6.93;;;12.00;66.90;;;;;;4993761;28;20456;-69
2023/07/22 01:09:22;;;;;;;12.20;7.77;;;11.90;66.80;;;;;;4993488;28;20459;-69
2023/07/22 01:11:49;;;;;;;14.83;7.40;;;11.90;66.80;;;;;;4997680;28;20469;-69
2023/07/22 01:14:16;;;;;;;16.00;7.73;;;11.80;67.70;;;;;;5000242;28;20980;-69
2023/07/22 01:16:43;;;;;;;10.90;6.90;;;11.70;68.20;;;;;;5006327;28;20474;-68
2023/07/22 01:19:12;;;;;;;12.03;7.07;;;11.70;68.70;;;;;;4994183;28;20447;-69
2023/07/22 01:21:40;;;;;;;11.97;7.50;;;11.70;67.00;;;;;;4997330;28;20945;-69
2023/07/22 01:24:08;;;;;;;11.00;6.60;;;11.70;66.60;;;;;;5012972;28;20454;-69
2023/07/22 01:26:36;;;;;;;13.40;6.87;;;11.70;64.30;;;;;;4995427;28;20449;-67
2023/07/22 01:29:04;;;;;;;15.93;7.43;;;11.80;62.70;;;;;;5007427;28;20457;-67
2023/07/22 01:31:31;;;;;;;19.37;7.77;;;11.80;62.70;;;;;;5010421;28;20532;-67
2023/07/22 01:33:58;;;;;;;19.23;7.10;;;11.70;62.60;;;;;;4997430;28;20456;-67
2023/07/22 01:36:26;;;;;;;13.73;7.03;;;11.70;62.60;;;;;;5008279;28;20470;-68
2023/07/22 01:38:52;;;;;;;15.33;7.70;;;11.70;64.40;;;;;;5004996;28;20455;-68
2023/07/22 01:41:21;;;;;;;15.60;7.03;;;11.60;65.40;;;;;;5003977;28;20464;-68
2023/07/22 01:43:48;;;;;;;13.33;7.40;;;11.60;66.60;;;;;;5010712;28;20454;-68
2023/07/22 01:46:15;;;;;;;13.17;7.90;;;11.60;67.70;;;;;;5006112;28;20481;-67
2023/07/22 01:48:43;;;;;;;18.13;8.80;;;11.60;68.70;;;;;;4993458;28;20776;-67
2023/07/22 01:51:11;;;;;;;16.43;8.73;;;11.50;68.70;;;;;;4998080;28;20453;-67
2023/07/22 01:53:38;;;;;;;16.73;10.17;;;11.60;69.20;;;;;;5012173;28;20900;-68
2023/07/22 01:56:06;;;;;;;14.87;9.37;;;11.50;70.40;;;;;;5003878;28;20450;-67
2023/07/22 01:58:34;;;;;;;15.30;8.80;;;11.50;70.40;;;;;;4992724;28;20446;-67
2023/07/22 02:01:01;;;;;;;22.53;9.10;;;11.50;70.30;;;;;;4994104;28;20454;-68
2023/07/22 02:03:27;;;;;;;13.50;9.10;;;11.40;70.30;;;;;;4994120;28;20814;-68
2023/07/22 02:05:54;;;;;;;14.07;9.07;;;11.40;70.30;;;;;;4997514;28;20453;-67
2023/07/22 02:08:21;;;;;;;15.80;9.40;;;11.30;70.20;;;;;;5004350;28;20443;-70
2023/07/22 02:10:48;;;;;;;15.10;9.87;;;11.30;70.30;;;;;;5009420;28;20508;-70
2023/07/22 02:13:15;;;;;;;18.47;11.13;;;11.30;70.30;;;;;;5006112;28;20452;-70
2023/07/22 02:15:44;;;;;;;18.40;10.97;;;11.30;70.30;;;;;;5013088;28;20945;-71
2023/07/22 02:18:11;;;;;;;19.00;11.17;;;11.30;72.50;;;;;;5012511;28;20488;-70
2023/07/22 02:20:38;;;;;;;20.13;12.03;;;11.20;73.30;;;;;;4993622;28;20516;-70
2023/07/22 02:23:05;;;;;;;14.90;12.40;;;11.20;74.00;;;;;;4998742;28;20517;-70
2023/07/22 02:25:32;;;;;;;15.33;12.33;;;11.10;76.00;;;;;;4993428;28;20454;-71
2023/07/22 02:27:59;;;;;;;15.97;13.00;;;11.10;77.80;;;;;;4993664;28;20451;-71
2023/07/22 02:30:25;;;;;;;15.43;12.47;;;11.10;77.90;;;;;;5009360;28;20445;-70
2023/07/22 02:32:53;;;;;;;15.37;12.57;;;11.00;77.80;;;;;;4997087;28;20450;-70
2023/07/22 02:35:20;;;;;;;17.10;13.90;;;11.00;77.80;;;;;;4999308;28;20452;-70
2023/07/22 02:37:47;;;;;;;14.10;12.20;;;11.00;77.90;;;;;;5012562;28;20844;-70
2023/07/22 02:40:14;;;;;;;16.10;13.60;;;11.00;77.80;;;;;;5002250;28;20458;-70
2023/07/22 02:42:41;;;;;;;17.80;14.33;;;11.00;77.90;;;;;;5000145;28;20452;-70
2023/07/22 02:45:09;;;;;;;20.10;14.10;;;11.00;77.80;;;;;;5012576;28;20465;-71
2023/07/22 02:47:36;;;;;;;18.43;14.40;;;11.00;77.80;;;;;;5012845;28;20454;-71
2023/07/22 02:50:06;;;;;;;15.77;14.17;;;11.00;77.80;;;;;;5011335;28;20455;-71
2023/07/22 02:52:33;;;;;;;22.63;14.57;;;11.00;77.90;;;;;;4999665;28;20450;-70
2023/07/22 02:55:08;;;;;;;15.20;13.07;;;11.00;77.80;;;;;;4996655;28;20453;-71
2023/07/22 02:57:35;;;;;;;18.20;11.80;;;11.00;77.90;;;;;;4996221;28;20485;-70
2023/07/22 03:00:07;;;;;;;17.20;11.83;;;11.00;77.80;;;;;;4996026;28;20549;-70
2023/07/22 03:02:33;;;;;;;17.70;13.83;;;11.00;77.80;;;;;;4996267;28;20465;-70
2023/07/22 03:05:00;;;;;;;20.50;13.13;;;10.90;77.70;;;;;;4996681;28;20802;-70
2023/07/22 03:07:28;;;;;;;18.87;14.20;;;10.90;77.80;;;;;;4996524;28;20969;-70
2023/07/22 03:09:55;;;;;;;19.20;14.27;;;10.90;77.80;;;;;;4996339;28;20875;-70
2023/07/22 03:12:22;;;;;;;16.40;14.60;;;10.90;77.80;;;;;;5011411;28;20452;-70
2023/07/22 03:14:49;;;;;;;18.60;15.03;;;10.80;77.70;;;;;;5015557;28;20459;-70
2023/07/22 03:17:16;;;;;;;18.10;15.07;;;10.80;77.70;;;;;;5009955;28;20473;-70
2023/07/22 03:19:43;;;;;;;17.17;15.57;;;10.80;77.70;;;;;;5015414;28;20488;-70
2023/07/22 03:22:10;;;;;;;18.23;16.50;;;10.80;77.70;;;;;;5005957;28;20478;-70
2023/07/22 03:24:39;;;;;;;20.50;18.57;;;10.80;77.70;;;;;;4996176;28;20450;-70
2023/07/22 03:27:06;;;;;;;21.07;18.87;;;10.80;77.70;;;;;;4995821;28;20458;-70
2023/07/22 03:29:33;;;;;;;22.97;20.80;;;10.80;77.70;;;;;;4995762;28;20451;-70
2023/07/22 03:32:00;;;;;;;21.50;19.27;;;10.70;77.60;;;;;;4996041;28;20462;-70
2023/07/22 03:34:27;;;;;;;24.60;22.60;;;10.70;77.60;;;;;;4997660;28;20458;-70
2023/07/22 03:36:54;;;;;;;25.73;23.03;;;10.70;77.60;;;;;;4995953;28;20467;-70
2023/07/22 03:39:21;;;;;;;27.00;24.70;;;10.70;77.60;;;;;;4995890;28;20450;-70
2023/07/22 03:41:49;;;;;;;27.50;25.13;;;10.70;77.60;;;;;;5005333;28;20564;-70
2023/07/22 03:44:16;;;;;;;30.33;28.17;;;10.70;77.70;;;;;;5004026;28;20794;-70
2023/07/22 03:46:43;;;;;;;31.30;29.30;;;10.70;77.60;;;;;;4995693;28;20462;-70
2023/07/22 03:49:10;;;;;;;29.53;27.27;;;10.80;77.70;;;;;;5013685;28;20541;-70
2023/07/22 03:51:36;;;;;;;26.53;24.53;;;10.90;77.80;;;;;;5013887;28;20449;-70
2023/07/22 03:54:03;;;;;;;28.23;26.07;;;11.00;77.90;;;;;;4996068;28;20454;-70
2023/07/22 03:56:30;;;;;;;23.10;21.40;;;11.10;78.00;;;;;;5012026;28;20449;-70
2023/07/22 03:58:58;;;;;;;27.10;24.70;;;11.20;78.00;;;;;;4998700;28;20989;-70
2023/07/22 04:01:25;;;;;;;22.10;20.30;;;11.30;78.10;;;;;;5000759;28;20452;-70
2023/07/22 04:03:52;;;;;;;23.97;21.53;;;11.30;78.10;;;;;;5014630;28;20457;-70
2023/07/22 04:06:19;;;;;;;20.67;18.73;;;11.30;78.10;;;;;;5013681;28;20473;-70
2023/07/22 04:08:46;;;;;;;22.60;20.80;;;11.40;78.30;;;;;;4995623;28;20481;-70
2023/07/22 04:11:14;;;;;;;27.20;24.57;;;11.50;78.30;;;;;;4995251;28;20450;-73
2023/07/22 04:13:40;;;;;;;23.57;21.67;;;11.60;78.40;;;;;;4998956;28;20460;-73
2023/07/22 04:16:08;;;;;;;23.57;21.43;;;11.60;78.40;;;;;;4997445;28;20847;-73
2023/07/22 04:18:35;;;;;;;19.30;17.60;;;11.70;78.50;;;;;;4995337;28;20478;-73
2023/07/22 04:21:02;;;;;;;16.63;14.93;;;11.80;78.60;;;;;;5003354;28;20457;-74
2023/07/22 04:23:29;;;;;;;16.77;15.13;;;11.80;78.60;;;;;;5002228;28;20987;-74
2023/07/22 04:25:56;;;;;;;17.50;13.27;;;11.90;78.70;;;;;;5012923;28;20453;-74
2023/07/22 04:28:23;;;;;;;13.97;12.37;;;11.90;78.60;;;;;;5011118;28;20449;-74
2023/07/22 04:30:57;;;;;;;12.80;11.60;;;12.00;78.70;;;;;;5014034;28;20453;-74
2023/07/22 04:33:26;;;;;;;13.70;12.10;;;12.00;79.50;;;;;;5013873;28;20457;-73
2023/07/22 04:35:55;;;;;;;15.07;11.60;;;12.10;78.80;;;;;;4996846;28;20825;-74
2023/07/22 04:38:22;;;;;;;20.40;12.83;;;12.10;78.80;;;;;;4995011;28;20569;-74
2023/07/22 04:40:49;;;;;;;17.37;12.40;;;12.20;78.50;;;;;;4993991;28;20462;-73
2023/07/22 04:43:16;;;;;;;16.83;10.70;;;12.30;78.30;;;;;;4993918;28;20459;-73
2023/07/22 04:45:47;;;;;;;15.87;11.70;;;12.30;78.20;;;;;;4994252;28;20454;-73
2023/07/22 04:48:15;;;;;;;12.90;10.63;;;12.40;76.40;;;;;;4994188;28;20478;-73
2023/07/22 04:50:45;;;;;;;11.47;8.70;;;12.40;74.60;;;;;;4993804;28;20536;-73
2023/07/22 04:53:13;;;;;;;14.33;10.37;;;12.50;71.50;;;;;;4994183;28;20454;-73
2023/07/22 04:55:41;;;;;;;13.17;8.70;;;12.50;71.40;;;;;;4993977;28;20458;-73
2023/07/22 04:58:08;;;;;;;14.00;9.60;;;12.60;71.40;;;;;;4993777;28;21089;-73
2023/07/22 05:00:35;;;;;;;14.10;9.80;;;12.70;71.60;;;;;;4994923;28;20458;-73
2023/07/22 05:03:02;;;;;;;15.00;9.13;;;12.70;71.60;;;;;;4993822;28;20458;-73
2023/07/22 05:05:28;;;;;;;12.50;8.30;;;12.70;71.50;;;;;;4993740;28;20466;-73
2023/07/22 05:07:56;;;;;;;13.63;8.87;;;12.70;71.50;;;;;;5012048;28;20448;-74
2023/07/22 05:10:24;;;;;;;12.27;8.23;;;12.80;71.60;;;;;;5013191;28;20458;-73
2023/07/22 05:12:50;;;;;;;15.03;9.17;;;12.90;71.70;;;;;;5012990;28;20798;-73
2023/07/22 05:15:17;;;;;;;12.60;8.50;;;13.00;71.80;;;;;;5012427;28;20454;-73
2023/07/22 05:17:44;;;;;;;14.30;9.00;;;13.00;71.80;;;;;;5012422;28;20470;-73
2023/07/22 05:20:12;;;;;;;12.77;8.30;;;13.10;71.80;;;;;;4997485;28;20458;-73
2023/07/22 05:22:42;;;;;;;13.67;7.80;;;13.20;71.10;;;;;;4993463;28;20868;-73
2023/07/22 05:25:10;;;;;;;13.67;6.93;;;13.20;71.40;;;;;;4994129;28;20454;-74
2023/07/22 05:27:38;;;;;;;12.90;8.43;;;13.20;71.90;;;;;;4993635;28;20457;-74
2023/07/22 05:30:05;;;;;;;18.47;9.40;;;13.20;72.00;;;;;;5004969;28;20459;-73
2023/07/22 05:32:32;;;;;;;13.27;9.80;;;13.30;72.10;;;;;;5012522;28;20458;-73
2023/07/22 05:34:59;;;;;;;12.27;9.33;;;13.30;72.10;;;;;;5012862;28;20457;-73
2023/07/22 05:37:26;;;;;;;16.80;10.40;;;13.30;72.10;;;;;;5011998;28;20543;-73
2023/07/22 05:39:53;;;;;;;12.90;8.33;;;13.50;72.30;;;;;;5012228;28;20457;-73
2023/07/22 05:42:22;;;;;;;19.93;7.30;;;13.60;73.10;;;;;;5013000;28;21012;-72
2023/07/22 05:44:49;;;;;;;13.07;7.60;;;13.80;68.50;;;;;;5013338;28;20462;-71
2023/07/22 05:47:16;;;;;;;16.83;6.90;;;13.90;64.50;;;;;;5013164;28;20472;-71
2023/07/22 05:49:43;;;;;;;11.97;7.50;;;14.20;64.80;;;;;;5013465;28;20449;-71
2023/07/22 05:52:10;;;;;;;15.47;8.17;;;14.50;65.10;;;;;;4999425;28;20450;-70
2023/07/22 05:54:36;;;;;;;13.90;8.10;;;14.80;65.30;;;;;;4993753;28;20470;-71
2023/07/22 05:57:04;;;;;;;18.03;6.73;;;15.10;65.50;;;;;;4994656;28;20454;-70
2023/07/22 05:59:32;;;;;;;14.40;7.30;;;15.30;62.10;;;;;;4993094;28;20485;-71
2023/07/22 06:01:59;;;;;;;11.43;5.73;;;15.80;58.00;;;;;;4993655;28;20454;-71
2023/07/22 06:04:25;;;;;;;9.70;5.73;;;15.90;58.00;;;;;;5011278;28;20465;-71
2023/07/22 06:06:52;;;;;;;10.43;5.53;;;16.30;55.80;;;;;;5012979;28;20459;-71
2023/07/22 06:09:21;;;;;;;17.03;7.10;;;16.70;50.20;;;;;;5012956;28;20945;-71
2023/07/22 06:11:48;;;;;;;11.87;6.27;;;17.20;50.60;;;;;;5012918;28;20453;-71
2023/07/22 06:14:14;;;;;;;15.30;6.03;;;17.60;50.90;;;;;;5012834;28;20458;-71
2023/07/22 06:16:42;;;;;;;12.33;5.70;;;18.20;45.20;;;;;;5004394;28;21053;-71
2023/07/22 06:19:09;;;;;;;10.37;5.73;;;18.60;41.90;;;;;;5003995;28;20477;-71
2023/07/22 06:21:36;;;;;;;10.80;5.67;;;19.10;34.50;;;;;;5005585;28;20453;-71
2023/07/22 06:24:03;;;;;;;12.07;5.93;;;19.70;35.00;;;;;;5007166;28;20452;-71
2023/07/22 06:26:30;;;;;;;9.40;5.90;;;20.20;34.80;;;;;;5014252;28;20465;-70
2023/07/22 06:28:57;;;;;;;12.50;6.10;;;20.40;27.30;;;;;;5013061;28;20457;-71
2023/07/22 06:31:24;;;;;;;10.10;5.73;;;20.50;23.50;;;;;;4997535;28;20459;-71
2023/07/22 06:33:53;;;;;;;10.37;5.80;;;20.20;19.90;;;;;;4997314;28;20453;-71
2023/07/22 06:36:19;;;;;;;14.17;7.00;;;19.90;19.70;;;;;;4997028;28;20465;-70
2023/07/22 06:38:46;;;;;;;12.20;6.77;;;19.80;22.50;;;;;;5010170;28;20472;-70
2023/07/22 06:41:13;;;;;;;11.30;6.60;;;19.60;25.30;;;;;;5016448;28;20949;-70
2023/07/22 06:43:40;;;;;;;14.30;6.73;;;19.50;25.00;;;;;;5016364;28;20461;-71
2023/07/22 06:46:07;;;;;;;12.60;7.50;;;19.40;26.30;;;;;;5015592;28;20963;-71
2023/07/22 06:48:34;;;;;;;13.23;7.20;;;19.30;26.50;;;;;;5016673;28;20453;-71
2023/07/22 06:51:02;;;;;;;13.27;6.33;;;18.80;26.20;;;;;;5016439;28;20449;-71
2023/07/22 06:53:31;;;;;;;12.33;6.87;;;19.00;26.30;;;;;;5016624;28;20467;-71
2023/07/22 06:55:57;;;;;;;14.10;7.80;;;19.10;26.40;;;;;;5016017;28;20459;-71
2023/07/22 06:58:24;;;;;;;13.80;6.67;;;19.10;26.40;;;;;;5015395;28;20568;-73
2023/07/22 07:00:54;;;;;;;13.20;6.27;;;19.10;26.40;;;;;;5015310;28;20454;-73
2023/07/22 07:03:22;;;;;;;12.87;7.23;;;19.00;26.30;;;;;;5015431;28;20457;-71
2023/07/22 07:05:53;;;;;;;15.43;7.20;;;19.00;26.30;;;;;;5011649;28;20460;-70
2023/07/22 07:08:21;;;;;;;12.77;6.57;;;19.00;26.30;;;;;;4995494;28;20455;-70
2023/07/22 07:10:48;;;;;;;17.03;6.47;;;19.00;27.10;;;;;;4996669;28;20460;-71
2023/07/22 07:13:15;;;;;;;11.13;6.50;;;19.10;26.40;;;;;;4993802;28;20464;-74
2023/07/22 07:15:42;;;;;;;12.57;6.83;;;19.20;26.50;;;;;;4995491;28;20514;-73
2023/07/22 07:18:09;;;;;;;13.10;6.27;;;19.50;26.70;;;;;;4995435;28;20478;-74
2023/07/22 07:20:35;;;;;;;11.10;6.90;;;19.50;26.70;;;;;;4995984;28;20513;-68
2023/07/22 07:23:02;;;;;;;12.20;6.83;;;19.60;26.70;;;;;;4994887;28;20557;-68
2023/07/22 07:25:30;;;;;;;13.30;7.70;;;19.60;26.70;;;;;;4995401;28;20455;-68
2023/07/22 07:27:57;;;;;;;9.87;6.57;;;19.70;26.80;;;;;;4995301;28;20458;-68
2023/07/22 07:30:24;;;;;;;14.00;7.00;;;19.70;24.20;;;;;;4994519;28;20454;-68
2023/07/22 07:32:51;;;;;;;13.83;7.27;;;19.80;23.80;;;;;;4993396;28;20517;-68
2023/07/22 07:35:18;;;;;;;12.60;7.30;;;19.70;22.40;;;;;;5007664;28;20454;-68
2023/07/22 07:37:44;;;;;;;16.30;8.07;;;19.80;24.50;;;;;;4998866;28;20554;-68
2023/07/22 07:40:13;;;;;;;18.30;8.27;;;19.70;22.20;;;;;;5001870;28;20484;-68
2023/07/22 07:42:41;;;;;;;13.00;7.37;;;19.80;23.30;;;;;;5013814;28;20457;-68
2023/07/22 07:45:09;;;;;;;13.70;7.00;;;19.90;19.70;;;;;;4995937;28;20997;-67
2023/07/22 07:47:36;;;;;;;11.50;6.60;;;20.20;20.60;;;;;;4994895;28;20482;-68
2023/07/22 07:50:04;;;;;;;11.33;6.47;;;20.40;20.00;;;;;;5009934;28;20508;-68
2023/07/22 07:52:30;;;;;;;10.77;6.80;;;20.50;20.10;;;;;;5014177;28;20454;-68
2023/07/22 07:54:57;;;;;;;12.53;6.90;;;20.50;20.10;;;;;;5014320;28;20460;-68
2023/07/22 07:57:24;;;;;;;13.90;7.33;;;20.70;20.20;;;;;;5014280;28;20458;-68
2023/07/22 07:59:52;;;;;;;13.57;7.70;;;20.80;20.30;;;;;;5000089;28;20470;-68
2023/07/22 08:02:19;;;;;;;11.83;6.97;;;21.30;20.60;;;;;;4994669;28;21034;-68
2023/07/22 08:04:46;;;;;;;12.80;7.33;;;21.70;18.80;;;;;;4994621;28;20553;-67
2023/07/22 08:07:17;;;;;;;12.57;7.60;;;22.20;13.80;;;;;;4994863;28;20476;-68
2023/07/22 08:09:48;;;;;;;12.80;6.70;;;22.20;13.80;;;;;;4994466;28;20505;-69
2023/07/22 08:12:15;;;;;;;12.32;8.00;;;22.70;14.10;;;;;;5003479;28;20481;-68
2023/07/22 08:14:41;;;;;;;12.60;7.40;;;23.00;9.80;;;;;;5014019;28;20199;-69
2023/07/22 08:17:10;;;;;;;13.73;7.63;;;23.00;6.70;;;;;;5014317;28;20822;-67
2023/07/22 08:19:36;;;;;;;10.17;7.20;;;23.10;7.70;;;;;;4999239;28;20478;-67
2023/07/22 08:22:03;;;;;;;11.00;6.83;;;23.30;7.70;;;;;;4994856;28;20454;-66
2023/07/22 08:24:30;;;;;;;11.90;7.13;;;23.40;7.00;;;;;;5003670;28;20792;-66
2023/07/22 08:26:57;;;;;;;11.43;7.13;;;23.00;7.40;;;;;;5013887;28;20464;-66
2023/07/22 08:29:24;;;;;;;12.00;7.00;;;22.90;6.60;;;;;;5013461;28;20519;-67
2023/07/22 08:31:51;;;;;;;11.43;6.70;;;22.50;6.30;;;;;;5013683;28;20457;-69
2023/07/22 08:34:19;;;;;;;12.93;7.33;;;22.80;6.60;;;;;;5013540;28;20464;-68
2023/07/22 08:36:46;;;;;;;13.57;7.40;;;22.80;6.60;;;;;;5013847;28;20548;-68
2023/07/22 08:39:13;;;;;;;10.77;6.20;;;23.00;6.70;;;;;;5012829;28;20477;-68
2023/07/22 08:41:41;;;;;;;13.00;8.70;;;23.00;6.70;;;;;;5010458;28;20464;-67
2023/07/22 08:44:10;;;;;;;9.37;6.03;;;23.10;6.80;;;;;;5003317;28;20446;-66
2023/07/22 08:46:38;;;;;;;13.33;8.30;;;23.20;6.90;;;;;;5005841;28;20453;-67
2023/07/22 08:49:06;;;;;;;12.07;5.90;;;23.40;3.00;;;;;;5010962;28;20819;-66
2023/07/22 08:51:37;;;;;;;12.07;6.33;;;23.30;1.00;;;;;;5013333;28;20461;-67
2023/07/22 08:54:05;;;;;;;11.10;5.53;;;23.30;1.00;;;;;;5013742;28;20525;-70
2023/07/22 08:56:32;;;;;;;12.03;5.97;;;23.80;1.00;;;;;;5013972;28;20873;-69
2023/07/22 08:58:59;;;;;;;8.63;5.30;;;23.80;1.00;;;;;;5008075;28;20470;-69
2023/07/22 09:01:26;;;;;;;9.50;6.20;;;24.10;1.00;;;;;;5000061;28;20449;-70
2023/07/22 09:03:56;;;;;;;7.80;4.47;;;24.20;1.00;;;;;;5012403;28;20511;-72
2023/07/22 09:06:23;;;;;;;13.33;7.47;;;23.70;1.00;;;;;;4997188;28;20450;-71
2023/07/22 09:08:52;;;;;;;9.40;4.60;;;23.90;1.00;;;;;;4993625;28;20464;-73
2023/07/22 09:11:21;;;;;;;9.13;5.00;;;23.30;1.00;;;;;;4993901;28;20553;-71
2023/07/22 09:13:49;;;;;;;10.73;5.70;;;23.40;1.00;;;;;;4993454;28;20462;-71
2023/07/22 09:16:18;;;;;;;8.73;4.60;;;23.80;1.00;;;;;;4993238;28;20461;-69
2023/07/22 09:18:44;;;;;;;7.93;4.40;;;23.70;1.00;;;;;;4993950;28;20824;-71
2023/07/22 09:21:11;;;;;;;8.52;4.05;;;23.60;1.00;;;;;;5003492;28;20451;-72
2023/07/22 09:23:39;;;;;;;9.30;4.10;;;23.30;1.00;;;;;;4993246;28;20203;-72
2023/07/22 09:26:14;;;;;;;11.80;3.97;;;23.30;1.00;;;;;;5000870;28;20451;-72
2023/07/22 09:28:52;;;;;;;9.17;3.73;;;23.00;1.00;;;;;;4992021;28;20460;-71
2023/07/22 09:31:19;;;;;;;6.87;3.80;;;22.80;1.00;;;;;;4996758;28;20449;-71
2023/07/22 09:33:46;;;;;;;7.87;3.83;;;23.20;1.00;;;;;;4999133;28;20453;-71
2023/07/22 09:36:13;;;;;;;8.43;3.83;;;23.70;1.00;;;;;;5000959;28;20832;-71
2023/07/22 09:38:40;;;;;;;11.90;3.73;;;24.70;1.00;;;;;;5002918;28;20480;-69
2023/07/22 09:41:08;;;;;;;7.50;3.30;;;24.90;1.00;;;;;;5012860;28;20795;-69
2023/07/22 09:43:39;;;;;;;6.77;3.30;;;24.60;1.00;;;;;;5012508;28;20453;-70
2023/07/22 09:46:10;;;;;;;14.60;3.90;;;25.00;1.00;;;;;;5012369;28;20457;-70
2023/07/22 09:48:42;;;;;;;7.00;3.03;;;25.20;1.00;;;;;;5002771;28;20464;-70
2023/07/22 09:51:14;;;;;;;8.23;3.40;;;25.10;1.00;;;;;;4993086;28;20504;-70
2023/07/22 09:53:45;;;;;;;6.57;3.77;;;25.60;1.00;;;;;;4992922;28;20517;-70
2023/07/22 09:56:12;;;;;;;8.17;3.67;;;25.70;1.00;;;;;;4992862;28;20458;-68
2023/07/22 09:58:41;;;;;;;9.77;3.47;;;25.40;1.00;;;;;;5006534;28;20453;-68
2023/07/22 10:01:08;;;;;;;7.60;3.78;;;25.10;1.00;;;;;;5014353;28;20454;-68
2023/07/22 10:03:39;;;;;;;6.00;3.00;;;25.10;1.00;;;;;;5013162;28;20200;-68
2023/07/22 10:06:07;;;;;;;8.00;3.40;;;25.50;1.00;;;;;;4996730;28;20454;-67
2023/07/22 10:08:36;;;;;;;6.17;2.73;;;25.90;1.00;;;;;;4996503;28;20545;-68
2023/07/22 10:11:06;;;;;;;5.60;2.87;;;25.90;1.00;;;;;;4996523;28;20461;-68
2023/07/22 10:13:33;;;;;;;8.33;3.43;;;26.50;1.00;;;;;;4996482;28;20464;-68
2023/07/22 10:16:02;;;;;;;10.10;3.43;;;26.50;1.00;;;;;;4996685;28;20463;-67
2023/07/22 10:18:31;;;;;;;10.43;3.67;;;26.20;1.00;;;;;;4996400;28;20826;-68
2023/07/22 10:20:58;;;;;;;7.53;3.70;;;26.40;1.00;;;;;;4996337;28;20843;-68
2023/07/22 10:23:27;;;;;;;6.77;3.10;;;26.30;1.00;;;;;;5005973;28;20862;-68
2023/07/22 10:25:55;;;;;;;6.90;2.90;;;25.80;1.00;;;;;;4999240;28;20454;-68
2023/07/22 10:28:23;;;;;;;9.37;3.57;;;25.60;1.00;;;;;;4996662;28;20991;-67
2023/07/22 10:30:50;;;;;;;8.60;3.23;;;25.30;1.00;;;;;;4996330;28;20482;-68
2023/07/22 10:33:19;;;;;;;7.90;2.87;;;25.30;1.00;;;;;;4996314;28;20460;-68
2023/07/22 10:36:04;;;;;;;6.53;3.00;;;25.50;1.00;;;;;;4996183;28;20454;-68
2023/07/22 10:38:31;;;;;;;9.60;2.50;;;25.50;1.00;;;;;;4996055;28;20500;-71
2023/07/22 10:40:58;;;;;;;10.63;2.77;;;25.30;1.00;;;;;;4996145;28;20742;-71
2023/07/22 10:43:27;;;;;;;5.90;2.50;;;24.90;1.00;;;;;;4996156;28;20460;-71
2023/07/22 10:45:56;;;;;;;7.00;2.77;;;25.30;1.00;;;;;;4996507;28;20450;-70
2023/07/22 10:48:27;;;;;;;6.90;2.57;;;25.50;1.00;;;;;;4995718;28;20454;-71
2023/07/22 10:50:55;;;;;;;6.40;2.93;;;25.20;1.00;;;;;;5002357;28;21315;-70
2023/07/22 10:53:31;;;;;;;6.50;2.63;;;25.60;1.00;;;;;;5014825;28;20457;-71
2023/07/22 10:56:15;;;;;;;5.90;2.83;;;25.50;1.00;;;;;;5015545;28;20463;-70
2023/07/22 10:59:02;;;;;;;8.60;3.37;;;25.30;1.00;;;;;;5015009;28;20453;-70
2023/07/22 11:01:34;;;;;;;6.47;3.10;;;25.30;1.00;;;;;;5015325;28;20548;-68
2023/07/22 11:04:07;;;;;;;6.00;2.70;;;25.30;1.00;;;;;;5010886;28;20985;-70
2023/07/22 11:06:35;;;;;;;7.90;3.20;;;26.30;1.00;;;;;;5004945;28;20839;-70
2023/07/22 11:09:02;;;;;;;8.10;2.80;;;26.50;1.00;;;;;;5014743;28;20507;-70
2023/07/22 11:11:40;;;;;;;6.13;2.90;;;27.40;1.00;;;;;;5001092;28;21145;-70
2023/07/22 11:14:18;;;;;;;5.73;2.63;;;27.60;1.00;;;;;;5006146;28;20954;-70
2023/07/22 11:16:46;;;;;;;6.13;2.87;;;27.00;1.00;;;;;;5002534;28;20478;-71
2023/07/22 11:19:16;;;;;;;6.67;2.90;;;27.00;1.00;;;;;;5009054;28;20446;-69
2023/07/22 11:21:43;;;;;;;6.47;2.63;;;26.20;1.00;;;;;;4999277;28;20454;-70
2023/07/22 11:24:10;;;;;;;7.43;2.70;;;26.50;1.00;;;;;;4996308;28;20939;-70
2023/07/22 11:26:37;;;;;;;6.20;3.00;;;26.50;1.00;;;;;;4996510;28;20450;-70
2023/07/22 11:29:05;;;;;;;6.07;2.97;;;26.40;1.00;;;;;;4996268;28;20478;-71
2023/07/22 11:31:31;;;;;;;6.90;3.57;;;27.30;1.00;;;;;;4996392;28;20992;-72
2023/07/22 11:33:58;;;;;;;7.00;2.70;;;27.20;1.00;;;;;;4996600;28;20463;-72
2023/07/22 11:36:26;;;;;;;6.63;3.10;;;27.20;1.00;;;;;;4995613;28;20549;-73
2023/07/22 11:38:54;;;;;;;6.30;3.30;;;27.80;1.00;;;;;;4995697;28;20458;-72
2023/07/22 11:41:21;;;;;;;7.27;2.90;;;28.00;1.00;;;;;;5007012;28;20463;-70
2023/07/22 11:43:48;;;;;;;5.93;2.80;;;28.40;1.00;;;;;;5000060;28;20827;-72
2023/07/22 11:46:15;;;;;;;6.10;2.80;;;27.60;1.00;;;;;;4999531;28;20460;-71
2023/07/22 11:48:51;;;;;;;6.97;3.20;;;27.90;1.00;;;;;;5007834;28;20855;-69
2023/07/22 11:51:18;;;;;;;7.30;3.40;;;28.50;1.00;;;;;;5006398;28;20555;-69
2023/07/22 11:53:49;;;;;;;7.30;3.90;;;28.80;1.00;;;;;;5012709;28;20460;-69
2023/07/22 11:56:21;;;;;;;7.00;3.37;;;28.80;1.00;;;;;;5012969;28;20435;-69
2023/07/22 11:58:52;;;;;;;6.50;3.77;;;29.80;1.00;;;;;;5003606;28;20449;-68
2023/07/22 12:01:20;;;;;;;7.10;3.60;;;30.80;1.00;;;;;;5001584;28;20432;-69
2023/07/22 12:03:47;;;;;;;6.20;2.90;;;30.70;1.00;;;;;;5002147;28;20464;-68
2023/07/22 12:06:15;;;;;;;6.90;3.53;;;29.60;1.00;;;;;;5010495;28;20456;-68
2023/07/22 12:08:46;;;;;;;7.60;3.50;;;28.50;1.00;;;;;;4995310;28;20462;-69
2023/07/22 12:11:21;;;;;;;7.53;3.77;;;28.90;1.00;;;;;;4995492;28;20448;-69
2023/07/22 12:13:51;;;;;;;6.10;3.00;;;28.80;1.00;;;;;;4994377;28;21108;-68
2023/07/22 12:16:23;;;;;;;6.07;2.97;;;29.10;1.00;;;;;;4997535;28;20450;-69
2023/07/22 12:18:50;;;;;;;6.70;3.00;;;29.50;1.00;;;;;;4997674;28;20504;-69
2023/07/22 12:21:17;;;;;;;13.23;3.97;;;30.90;1.00;;;;;;4996529;28;20422;-69
2023/07/22 12:23:44;;;;;;;10.53;3.50;;;30.00;1.00;;;;;;5007069;28;20458;-69
2023/07/22 12:26:11;;;;;;;12.37;3.77;;;30.00;1.00;;;;;;5007371;28;20451;-69
2023/07/22 12:28:39;;;;;;;6.33;3.07;;;31.20;1.00;;;;;;5001167;28;20787;-69
2023/07/22 12:31:06;;;;;;;6.60;3.10;;;31.90;1.00;;;;;;4997570;28;20460;-69
2023/07/22 12:33:36;;;;;;;15.00;4.30;;;30.70;1.00;;;;;;5000685;28;20429;-69
2023/07/22 12:36:03;;;;;;;6.30;3.00;;;30.10;1.00;;;;;;4996880;28;20425;-70
2023/07/22 12:38:29;;;;;;;7.00;2.80;;;30.70;1.00;;;;;;4997052;28;20450;-69
2023/07/22 12:40:56;;;;;;;7.00;3.23;;;30.70;1.00;;;;;;5013697;28;20464;-71
2023/07/22 12:43:23;;;;;;;9.33;2.60;;;31.60;1.00;;;;;;5013694;28;20428;-68